sensor_id;sensor_type;location;lat;lon;timestamp;pressure;altitude;pressure_sealevel;temperature;humidity
27623;BME280;15041;45.334;5.622;2023-12-20T00:02:19;99928.78;;;7.81;81.05
27623;BME280;15041;45.334;5.622;2023-12-20T00:04:46;99934.31;;;7.86;81.25
27623;BME280;15041;45.334;5.622;2023-12-20T00:07:13;99935.75;;;7.10;86.45
27623;BME280;15041;45.334;5.622;2023-12-20T00:09:40;99934.63;;;6.74;90.26
27623;BME280;15041;45.334;5.622;2023-12-20T00:12:08;99938.75;;;7.20;89.69
27623;BME280;15041;45.334;5.622;2023-12-20T00:14:37;99945.78;;;7.21;87.56
27623;BME280;15041;45.334;5.622;2023-12-20T00:17:04;99933.41;;;6.70;93.05
27623;BME280;15041;45.334;5.622;2023-12-20T00:19:31;99918.19;;;6.64;96.31
27623;BME280;15041;45.334;5.622;2023-12-20T00:21:58;99921.22;;;6.74;96.80
27623;BME280;15041;45.334;5.622;2023-12-20T00:24:26;99922.56;;;6.83;97.63
27623;BME280;15041;45.334;5.622;2023-12-20T00:26:53;99924.66;;;7.24;92.62
27623;BME280;15041;45.334;5.622;2023-12-20T00:29:20;99913.69;;;6.58;97.12
27623;BME280;15041;45.334;5.622;2023-12-20T00:31:48;99909.19;;;7.02;96.29
27623;BME280;15041;45.334;5.622;2023-12-20T00:34:16;99905.28;;;6.79;92.87
27623;BME280;15041;45.334;5.622;2023-12-20T00:36:43;99900.13;;;6.53;93.80
27623;BME280;15041;45.334;5.622;2023-12-20T00:39:10;99903.50;;;6.73;92.14
27623;BME280;15041;45.334;5.622;2023-12-20T00:41:37;99896.13;;;6.38;94.58
27623;BME280;15041;45.334;5.622;2023-12-20T00:44:05;99896.88;;;6.45;95.05
27623;BME280;15041;45.334;5.622;2023-12-20T00:46:32;99889.63;;;6.76;91.17
27623;BME280;15041;45.334;5.622;2023-12-20T00:49:00;99892.28;;;7.01;92.82
27623;BME280;15041;45.334;5.622;2023-12-20T00:51:27;99896.00;;;7.00;89.90
27623;BME280;15041;45.334;5.622;2023-12-20T00:53:54;99889.69;;;6.45;93.02
27623;BME280;15041;45.334;5.622;2023-12-20T00:56:22;99906.38;;;6.97;93.32
27623;BME280;15041;45.334;5.622;2023-12-20T00:58:49;99906.47;;;7.62;86.90
27623;BME280;15041;45.334;5.622;2023-12-20T01:01:17;99927.00;;;7.39;88.18
27623;BME280;15041;45.334;5.622;2023-12-20T01:03:44;99922.56;;;6.83;90.38
27623;BME280;15041;45.334;5.622;2023-12-20T01:06:13;99910.09;;;6.96;94.21
27623;BME280;15041;45.334;5.622;2023-12-20T01:08:41;99909.28;;;6.70;95.09
27623;BME280;15041;45.334;5.622;2023-12-20T01:11:08;99901.75;;;7.04;92.54
27623;BME280;15041;45.334;5.622;2023-12-20T01:13:35;99889.25;;;7.52;91.90
27623;BME280;15041;45.334;5.622;2023-12-20T01:16:03;99879.16;;;6.93;96.87
27623;BME280;15041;45.334;5.622;2023-12-20T01:21:35;99892.66;;;7.05;96.11
27623;BME280;15041;45.334;5.622;2023-12-20T01:24:03;99894.59;;;6.73;96.93
27623;BME280;15041;45.334;5.622;2023-12-20T01:26:30;99887.22;;;6.68;97.85
27623;BME280;15041;45.334;5.622;2023-12-20T01:28:57;99876.59;;;6.55;100.00
27623;BME280;15041;45.334;5.622;2023-12-20T01:31:24;99878.56;;;6.42;100.00
27623;BME280;15041;45.334;5.622;2023-12-20T01:33:54;99892.19;;;6.40;100.00
27623;BME280;15041;45.334;5.622;2023-12-20T01:36:21;99899.03;;;6.85;97.32
27623;BME280;15041;45.334;5.622;2023-12-20T01:38:50;99897.50;;;6.71;96.44
27623;BME280;15041;45.334;5.622;2023-12-20T01:41:17;99893.53;;;6.98;95.17
27623;BME280;15041;45.334;5.622;2023-12-20T01:43:44;99900.81;;;6.73;96.24
27623;BME280;15041;45.334;5.622;2023-12-20T01:46:12;99895.50;;;7.10;93.84
27623;BME280;15041;45.334;5.622;2023-12-20T01:48:39;99899.13;;;6.72;95.71
27623;BME280;15041;45.334;5.622;2023-12-20T01:51:06;99903.25;;;7.18;94.33
27623;BME280;15041;45.334;5.622;2023-12-20T01:53:34;99898.19;;;7.28;92.87
27623;BME280;15041;45.334;5.622;2023-12-20T01:56:04;99899.31;;;7.38;90.92
27623;BME280;15041;45.334;5.622;2023-12-20T01:58:31;99894.56;;;7.22;90.16
27623;BME280;15041;45.334;5.622;2023-12-20T02:00:59;99894.25;;;7.48;89.49
27623;BME280;15041;45.334;5.622;2023-12-20T02:03:26;99878.75;;;7.32;90.82
27623;BME280;15041;45.334;5.622;2023-12-20T02:05:53;99874.94;;;7.40;90.60
27623;BME280;15041;45.334;5.622;2023-12-20T02:08:21;99871.94;;;7.66;89.05
27623;BME280;15041;45.334;5.622;2023-12-20T02:10:49;99869.13;;;7.43;90.35
27623;BME280;15041;45.334;5.622;2023-12-20T02:13:17;99860.44;;;7.77;87.90
27623;BME280;15041;45.334;5.622;2023-12-20T02:15:44;99854.59;;;7.80;87.21
27623;BME280;15041;45.334;5.622;2023-12-20T02:18:11;99868.22;;;7.49;88.21
27623;BME280;15041;45.334;5.622;2023-12-20T02:20:40;99851.38;;;7.24;90.99
27623;BME280;15041;45.334;5.622;2023-12-20T02:23:09;99845.69;;;6.96;94.99
27623;BME280;15041;45.334;5.622;2023-12-20T02:25:36;99835.53;;;6.79;99.12
27623;BME280;15041;45.334;5.622;2023-12-20T02:28:04;99833.34;;;6.95;99.17
27623;BME280;15041;45.334;5.622;2023-12-20T02:30:32;99839.56;;;6.88;99.74
27623;BME280;15041;45.334;5.622;2023-12-20T02:33:04;99837.03;;;6.93;98.52
27623;BME280;15041;45.334;5.622;2023-12-20T02:35:35;99837.72;;;7.07;97.44
27623;BME280;15041;45.334;5.622;2023-12-20T02:38:03;99831.31;;;6.90;98.15
27623;BME280;15041;45.334;5.622;2023-12-20T02:40:31;99838.97;;;7.41;95.73
27623;BME280;15041;45.334;5.622;2023-12-20T02:42:59;99843.63;;;7.34;94.67
27623;BME280;15041;45.334;5.622;2023-12-20T02:45:26;99841.09;;;7.21;95.73
27623;BME280;15041;45.334;5.622;2023-12-20T02:47:53;99849.00;;;7.34;93.71
27623;BME280;15041;45.334;5.622;2023-12-20T02:50:21;99851.81;;;7.39;93.35
27623;BME280;15041;45.334;5.622;2023-12-20T02:52:48;99846.59;;;7.26;93.61
27623;BME280;15041;45.334;5.622;2023-12-20T02:55:15;99841.97;;;7.33;95.29
27623;BME280;15041;45.334;5.622;2023-12-20T02:57:44;99841.38;;;7.31;94.53
27623;BME280;15041;45.334;5.622;2023-12-20T03:00:12;99837.78;;;7.37;94.12
27623;BME280;15041;45.334;5.622;2023-12-20T03:02:39;99828.41;;;7.28;95.25
27623;BME280;15041;45.334;5.622;2023-12-20T03:05:07;99841.31;;;7.19;97.98
27623;BME280;15041;45.334;5.622;2023-12-20T03:07:36;99845.72;;;7.50;99.05
27623;BME280;15041;45.334;5.622;2023-12-20T03:10:05;99840.34;;;7.79;96.83
27623;BME280;15041;45.334;5.622;2023-12-20T03:12:33;99835.97;;;7.49;96.39
27623;BME280;15041;45.334;5.622;2023-12-20T03:15:01;99825.44;;;7.18;98.82
27623;BME280;15041;45.334;5.622;2023-12-20T03:17:29;99815.50;;;7.36;100.00
27623;BME280;15041;45.334;5.622;2023-12-20T03:19:56;99818.88;;;7.91;95.47
27623;BME280;15041;45.334;5.622;2023-12-20T03:22:23;99812.13;;;8.00;93.09
27623;BME280;15041;45.334;5.622;2023-12-20T03:24:50;99811.94;;;8.13;93.94
27623;BME280;15041;45.334;5.622;2023-12-20T03:27:17;99820.63;;;7.56;100.00
27623;BME280;15041;45.334;5.622;2023-12-20T03:29:44;99812.13;;;7.41;100.00
27623;BME280;15041;45.334;5.622;2023-12-20T03:32:13;99807.38;;;7.43;100.00
27623;BME280;15041;45.334;5.622;2023-12-20T03:34:40;99808.78;;;7.75;100.00
27623;BME280;15041;45.334;5.622;2023-12-20T03:37:07;99811.69;;;7.44;100.00
27623;BME280;15041;45.334;5.622;2023-12-20T03:39:34;99797.69;;;7.42;100.00
27623;BME280;15041;45.334;5.622;2023-12-20T03:42:01;99805.97;;;7.40;100.00
27623;BME280;15041;45.334;5.622;2023-12-20T03:44:28;99810.88;;;7.73;100.00
27623;BME280;15041;45.334;5.622;2023-12-20T03:46:55;99815.66;;;7.71;100.00
27623;BME280;15041;45.334;5.622;2023-12-20T03:49:24;99812.25;;;7.64;100.00
27623;BME280;15041;45.334;5.622;2023-12-20T03:51:51;99816.44;;;7.60;100.00
27623;BME280;15041;45.334;5.622;2023-12-20T03:54:18;99810.78;;;7.50;100.00
27623;BME280;15041;45.334;5.622;2023-12-20T03:56:45;99818.84;;;7.32;100.00
27623;BME280;15041;45.334;5.622;2023-12-20T03:59:13;99809.75;;;7.92;100.00
27623;BME280;15041;45.334;5.622;2023-12-20T04:01:43;99802.88;;;7.55;100.00
27623;BME280;15041;45.334;5.622;2023-12-20T04:04:10;99798.31;;;7.85;100.00
27623;BME280;15041;45.334;5.622;2023-12-20T04:06:39;99803.94;;;7.95;99.93
27623;BME280;15041;45.334;5.622;2023-12-20T04:09:06;99805.97;;;7.70;100.00
27623;BME280;15041;45.334;5.622;2023-12-20T04:11:34;99808.03;;;7.56;100.00
27623;BME280;15041;45.334;5.622;2023-12-20T04:14:02;99804.53;;;7.67;100.00
27623;BME280;15041;45.334;5.622;2023-12-20T04:16:30;99807.78;;;7.58;100.00
27623;BME280;15041;45.334;5.622;2023-12-20T04:18:57;99812.59;;;7.20;100.00
27623;BME280;15041;45.334;5.622;2023-12-20T04:21:24;99811.88;;;6.95;100.00
27623;BME280;15041;45.334;5.622;2023-12-20T04:23:53;99798.13;;;7.39;100.00
27623;BME280;15041;45.334;5.622;2023-12-20T04:26:20;99782.09;;;7.32;100.00
27623;BME280;15041;45.334;5.622;2023-12-20T04:28:49;99777.59;;;7.26;100.00
27623;BME280;15041;45.334;5.622;2023-12-20T04:31:16;99780.47;;;7.61;100.00
27623;BME280;15041;45.334;5.622;2023-12-20T04:33:43;99778.88;;;7.24;100.00
27623;BME280;15041;45.334;5.622;2023-12-20T04:36:10;99781.28;;;7.14;100.00
27623;BME280;15041;45.334;5.622;2023-12-20T04:38:37;99775.72;;;7.45;100.00
27623;BME280;15041;45.334;5.622;2023-12-20T04:41:06;99769.63;;;7.67;100.00
27623;BME280;15041;45.334;5.622;2023-12-20T04:43:33;99770.97;;;7.88;100.00
27623;BME280;15041;45.334;5.622;2023-12-20T04:46:00;99768.16;;;7.24;100.00
27623;BME280;15041;45.334;5.622;2023-12-20T04:48:28;99774.19;;;7.37;100.00
27623;BME280;15041;45.334;5.622;2023-12-20T04:50:55;99771.00;;;7.58;100.00
27623;BME280;15041;45.334;5.622;2023-12-20T04:53:22;99769.72;;;7.61;100.00
27623;BME280;15041;45.334;5.622;2023-12-20T04:55:49;99769.91;;;7.48;100.00
27623;BME280;15041;45.334;5.622;2023-12-20T04:58:18;99772.06;;;7.10;100.00
27623;BME280;15041;45.334;5.622;2023-12-20T05:00:45;99761.44;;;7.15;100.00
27623;BME280;15041;45.334;5.622;2023-12-20T05:03:12;99758.78;;;7.15;100.00
27623;BME280;15041;45.334;5.622;2023-12-20T05:05:40;99750.31;;;7.29;100.00
27623;BME280;15041;45.334;5.622;2023-12-20T05:08:07;99749.66;;;7.34;100.00
27623;BME280;15041;45.334;5.622;2023-12-20T05:10:34;99745.59;;;7.43;100.00
27623;BME280;15041;45.334;5.622;2023-12-20T05:13:02;99742.31;;;7.41;100.00
27623;BME280;15041;45.334;5.622;2023-12-20T05:15:31;99739.41;;;7.72;100.00
27623;BME280;15041;45.334;5.622;2023-12-20T05:17:58;99741.16;;;7.78;100.00
27623;BME280;15041;45.334;5.622;2023-12-20T05:20:25;99745.41;;;7.26;100.00
27623;BME280;15041;45.334;5.622;2023-12-20T05:22:53;99760.53;;;7.39;100.00
27623;BME280;15041;45.334;5.622;2023-12-20T05:25:20;99770.53;;;7.32;100.00
27623;BME280;15041;45.334;5.622;2023-12-20T05:27:47;99773.97;;;7.39;100.00
27623;BME280;15041;45.334;5.622;2023-12-20T05:30:14;99779.19;;;6.97;100.00
27623;BME280;15041;45.334;5.622;2023-12-20T05:32:43;99776.53;;;6.79;100.00
27623;BME280;15041;45.334;5.622;2023-12-20T05:35:10;99775.31;;;6.93;100.00
27623;BME280;15041;45.334;5.622;2023-12-20T05:37:37;99770.91;;;7.35;100.00
27623;BME280;15041;45.334;5.622;2023-12-20T05:40:06;99778.00;;;7.30;100.00
27623;BME280;15041;45.334;5.622;2023-12-20T05:42:35;99786.13;;;7.05;100.00
27623;BME280;15041;45.334;5.622;2023-12-20T05:45:03;99789.78;;;6.93;100.00
27623;BME280;15041;45.334;5.622;2023-12-20T05:47:31;99780.84;;;6.98;100.00
27623;BME280;15041;45.334;5.622;2023-12-20T05:50:00;99781.16;;;7.09;100.00
27623;BME280;15041;45.334;5.622;2023-12-20T05:52:27;99771.59;;;7.13;100.00
27623;BME280;15041;45.334;5.622;2023-12-20T05:54:54;99774.22;;;7.49;100.00
27623;BME280;15041;45.334;5.622;2023-12-20T05:57:23;99777.91;;;7.36;100.00
27623;BME280;15041;45.334;5.622;2023-12-20T05:59:51;99781.09;;;7.45;100.00
27623;BME280;15041;45.334;5.622;2023-12-20T06:02:18;99790.00;;;7.27;100.00
27623;BME280;15041;45.334;5.622;2023-12-20T06:04:45;99803.50;;;7.03;100.00
27623;BME280;15041;45.334;5.622;2023-12-20T06:07:14;99803.06;;;7.06;100.00
27623;BME280;15041;45.334;5.622;2023-12-20T06:09:42;99800.50;;;7.11;100.00
27623;BME280;15041;45.334;5.622;2023-12-20T06:12:09;99800.09;;;6.96;100.00
27623;BME280;15041;45.334;5.622;2023-12-20T06:14:37;99798.28;;;7.26;100.00
27623;BME280;15041;45.334;5.622;2023-12-20T06:17:04;99799.94;;;7.09;100.00
27623;BME280;15041;45.334;5.622;2023-12-20T06:19:31;99794.88;;;7.01;100.00
27623;BME280;15041;45.334;5.622;2023-12-20T06:21:58;99788.44;;;7.20;100.00
27623;BME280;15041;45.334;5.622;2023-12-20T06:24:27;99783.53;;;7.17;100.00
27623;BME280;15041;45.334;5.622;2023-12-20T06:26:54;99784.88;;;7.08;100.00
27623;BME280;15041;45.334;5.622;2023-12-20T06:29:21;99778.53;;;7.20;100.00
27623;BME280;15041;45.334;5.622;2023-12-20T06:31:48;99790.97;;;7.15;100.00
27623;BME280;15041;45.334;5.622;2023-12-20T06:34:15;99794.84;;;7.19;100.00
27623;BME280;15041;45.334;5.622;2023-12-20T06:36:43;99787.38;;;7.39;100.00
27623;BME280;15041;45.334;5.622;2023-12-20T06:39:10;99808.59;;;7.29;100.00
27623;BME280;15041;45.334;5.622;2023-12-20T06:41:39;99809.31;;;7.36;100.00
27623;BME280;15041;45.334;5.622;2023-12-20T06:44:06;99796.41;;;7.44;100.00
27623;BME280;15041;45.334;5.622;2023-12-20T06:46:34;99798.94;;;7.39;100.00
27623;BME280;15041;45.334;5.622;2023-12-20T06:49:01;99800.84;;;7.21;100.00
27623;BME280;15041;45.334;5.622;2023-12-20T06:51:28;99796.19;;;7.28;100.00
27623;BME280;15041;45.334;5.622;2023-12-20T06:53:56;99785.59;;;7.15;100.00
27623;BME280;15041;45.334;5.622;2023-12-20T06:56:23;99797.25;;;7.09;100.00
27623;BME280;15041;45.334;5.622;2023-12-20T06:58:52;99792.09;;;7.07;100.00
27623;BME280;15041;45.334;5.622;2023-12-20T07:01:19;99801.63;;;7.21;100.00
27623;BME280;15041;45.334;5.622;2023-12-20T07:03:46;99811.88;;;7.60;100.00
27623;BME280;15041;45.334;5.622;2023-12-20T07:06:13;99801.06;;;7.67;100.00
27623;BME280;15041;45.334;5.622;2023-12-20T07:08:42;99812.38;;;7.03;100.00
27623;BME280;15041;45.334;5.622;2023-12-20T07:11:09;99808.59;;;7.29;100.00
27623;BME280;15041;45.334;5.622;2023-12-20T07:13:36;99816.63;;;7.11;100.00
27623;BME280;15041;45.334;5.622;2023-12-20T07:16:05;99815.44;;;7.07;100.00
27623;BME280;15041;45.334;5.622;2023-12-20T07:18:32;99814.56;;;7.13;100.00
27623;BME280;15041;45.334;5.622;2023-12-20T07:21:00;99812.22;;;7.34;100.00
27623;BME280;15041;45.334;5.622;2023-12-20T07:23:27;99816.03;;;6.91;100.00
27623;BME280;15041;45.334;5.622;2023-12-20T07:25:54;99809.19;;;7.13;100.00
27623;BME280;15041;45.334;5.622;2023-12-20T07:28:21;99805.31;;;6.91;100.00
27623;BME280;15041;45.334;5.622;2023-12-20T07:30:49;99816.34;;;7.01;100.00
27623;BME280;15041;45.334;5.622;2023-12-20T07:33:17;99814.69;;;7.00;100.00
27623;BME280;15041;45.334;5.622;2023-12-20T07:35:44;99817.81;;;7.15;100.00
27623;BME280;15041;45.334;5.622;2023-12-20T07:38:12;99818.13;;;7.25;100.00
27623;BME280;15041;45.334;5.622;2023-12-20T07:40:39;99826.16;;;7.07;100.00
27623;BME280;15041;45.334;5.622;2023-12-20T07:43:06;99837.66;;;6.96;100.00
27623;BME280;15041;45.334;5.622;2023-12-20T07:45:33;99843.22;;;6.94;100.00
27623;BME280;15041;45.334;5.622;2023-12-20T07:48:00;99849.44;;;6.95;100.00
27623;BME280;15041;45.334;5.622;2023-12-20T07:50:29;99839.34;;;7.08;100.00
27623;BME280;15041;45.334;5.622;2023-12-20T07:52:57;99837.50;;;7.09;100.00
27623;BME280;15041;45.334;5.622;2023-12-20T07:55:25;99837.06;;;7.30;100.00
27623;BME280;15041;45.334;5.622;2023-12-20T07:57:52;99842.72;;;7.22;100.00
27623;BME280;15041;45.334;5.622;2023-12-20T08:00:19;99842.94;;;7.20;100.00
27623;BME280;15041;45.334;5.622;2023-12-20T08:02:47;99850.88;;;6.72;100.00
27623;BME280;15041;45.334;5.622;2023-12-20T08:05:14;99849.94;;;6.60;100.00
27623;BME280;15041;45.334;5.622;2023-12-20T08:07:43;99851.97;;;6.40;100.00
27623;BME280;15041;45.334;5.622;2023-12-20T08:10:10;99848.53;;;6.02;100.00
27623;BME280;15041;45.334;5.622;2023-12-20T08:12:37;99863.75;;;6.08;100.00
27623;BME280;15041;45.334;5.622;2023-12-20T08:15:06;99859.41;;;6.38;100.00
27623;BME280;15041;45.334;5.622;2023-12-20T08:17:33;99864.00;;;6.31;100.00
27623;BME280;15041;45.334;5.622;2023-12-20T08:20:00;99873.63;;;6.39;100.00
27623;BME280;15041;45.334;5.622;2023-12-20T08:22:27;99871.00;;;6.32;100.00
27623;BME280;15041;45.334;5.622;2023-12-20T08:24:56;99879.78;;;6.15;100.00
27623;BME280;15041;45.334;5.622;2023-12-20T08:27:23;99881.38;;;6.22;100.00
27623;BME280;15041;45.334;5.622;2023-12-20T08:29:51;99890.31;;;6.41;100.00
27623;BME280;15041;45.334;5.622;2023-12-20T08:32:18;99885.88;;;6.28;100.00
27623;BME280;15041;45.334;5.622;2023-12-20T08:34:45;99894.00;;;6.46;100.00
27623;BME280;15041;45.334;5.622;2023-12-20T08:37:12;99896.41;;;6.54;100.00
27623;BME280;15041;45.334;5.622;2023-12-20T08:39:40;99890.78;;;6.38;100.00
27623;BME280;15041;45.334;5.622;2023-12-20T08:42:08;99897.28;;;6.48;100.00
27623;BME280;15041;45.334;5.622;2023-12-20T08:44:35;99909.53;;;6.62;100.00
27623;BME280;15041;45.334;5.622;2023-12-20T08:47:03;99905.34;;;6.48;100.00
27623;BME280;15041;45.334;5.622;2023-12-20T08:49:30;99912.34;;;6.49;100.00
27623;BME280;15041;45.334;5.622;2023-12-20T08:51:57;99906.25;;;6.60;100.00
27623;BME280;15041;45.334;5.622;2023-12-20T08:54:24;99911.44;;;6.55;100.00
27623;BME280;15041;45.334;5.622;2023-12-20T08:56:52;99915.78;;;6.56;100.00
27623;BME280;15041;45.334;5.622;2023-12-20T08:59:20;99906.59;;;6.70;100.00
27623;BME280;15041;45.334;5.622;2023-12-20T09:01:47;99908.28;;;6.65;100.00
27623;BME280;15041;45.334;5.622;2023-12-20T09:04:19;99914.44;;;6.72;100.00
27623;BME280;15041;45.334;5.622;2023-12-20T09:06:46;99903.53;;;6.67;100.00
27623;BME280;15041;45.334;5.622;2023-12-20T09:09:14;99902.09;;;6.64;100.00
27623;BME280;15041;45.334;5.622;2023-12-20T09:11:41;99909.97;;;6.59;100.00
27623;BME280;15041;45.334;5.622;2023-12-20T09:14:08;99918.53;;;6.74;100.00
27623;BME280;15041;45.334;5.622;2023-12-20T09:16:37;99929.91;;;6.95;100.00
27623;BME280;15041;45.334;5.622;2023-12-20T09:19:04;99927.81;;;6.97;100.00
27623;BME280;15041;45.334;5.622;2023-12-20T09:21:31;99935.03;;;7.21;100.00
27623;BME280;15041;45.334;5.622;2023-12-20T09:23:58;99939.06;;;7.30;100.00
27623;BME280;15041;45.334;5.622;2023-12-20T09:26:25;99937.75;;;7.39;100.00
27623;BME280;15041;45.334;5.622;2023-12-20T09:28:52;99948.47;;;7.39;100.00
27623;BME280;15041;45.334;5.622;2023-12-20T09:31:20;99950.94;;;7.40;100.00
27623;BME280;15041;45.334;5.622;2023-12-20T09:33:49;99946.84;;;7.38;100.00
27623;BME280;15041;45.334;5.622;2023-12-20T09:36:16;99943.09;;;7.39;100.00
27623;BME280;15041;45.334;5.622;2023-12-20T09:38:43;99939.38;;;7.40;100.00
27623;BME280;15041;45.334;5.622;2023-12-20T09:41:10;99943.41;;;7.49;100.00
27623;BME280;15041;45.334;5.622;2023-12-20T09:43:38;99940.06;;;7.53;100.00
27623;BME280;15041;45.334;5.622;2023-12-20T09:46:06;99952.28;;;7.49;100.00
27623;BME280;15041;45.334;5.622;2023-12-20T09:48:34;99943.41;;;7.49;100.00
27623;BME280;15041;45.334;5.622;2023-12-20T09:51:05;99949.16;;;7.52;100.00
27623;BME280;15041;45.334;5.622;2023-12-20T09:53:34;99944.59;;;7.53;100.00
27623;BME280;15041;45.334;5.622;2023-12-20T09:56:04;99943.41;;;7.49;100.00
27623;BME280;15041;45.334;5.622;2023-12-20T09:58:32;99942.13;;;7.51;100.00
27623;BME280;15041;45.334;5.622;2023-12-20T10:01:00;99939.22;;;7.53;100.00
27623;BME280;15041;45.334;5.622;2023-12-20T10:03:30;99930.94;;;7.54;100.00
27623;BME280;15041;45.334;5.622;2023-12-20T10:05:59;99940.44;;;7.57;100.00
27623;BME280;15041;45.334;5.622;2023-12-20T10:08:28;99934.91;;;7.52;100.00
27623;BME280;15041;45.334;5.622;2023-12-20T10:10:58;99930.88;;;7.61;100.00
27623;BME280;15041;45.334;5.622;2023-12-20T10:13:28;99936.25;;;7.61;100.00
27623;BME280;15041;45.334;5.622;2023-12-20T10:15:56;99940.56;;;7.62;100.00
27623;BME280;15041;45.334;5.622;2023-12-20T10:18:23;99934.00;;;7.58;100.00
27623;BME280;15041;45.334;5.622;2023-12-20T10:20:50;99932.50;;;7.62;100.00
27623;BME280;15041;45.334;5.622;2023-12-20T10:23:17;99931.31;;;7.58;100.00
27623;BME280;15041;45.334;5.622;2023-12-20T10:25:56;99927.47;;;7.72;100.00
27623;BME280;15041;45.334;5.622;2023-12-20T10:28:23;99930.13;;;7.72;100.00
27623;BME280;15041;45.334;5.622;2023-12-20T10:30:53;99926.97;;;7.75;100.00
27623;BME280;15041;45.334;5.622;2023-12-20T10:33:25;99922.53;;;7.69;100.00
27623;BME280;15041;45.334;5.622;2023-12-20T10:35:53;99924.28;;;7.75;100.00
27623;BME280;15041;45.334;5.622;2023-12-20T10:38:20;99924.00;;;7.83;100.00
27623;BME280;15041;45.334;5.622;2023-12-20T10:40:48;99929.09;;;7.73;100.00
27623;BME280;15041;45.334;5.622;2023-12-20T10:43:17;99922.09;;;7.72;100.00
27623;BME280;15041;45.334;5.622;2023-12-20T10:45:44;99924.47;;;7.80;100.00
27623;BME280;15041;45.334;5.622;2023-12-20T10:48:12;99910.69;;;7.88;100.00
27623;BME280;15041;45.334;5.622;2023-12-20T10:50:40;99903.56;;;7.82;100.00
27623;BME280;15041;45.334;5.622;2023-12-20T10:53:08;99909.06;;;7.87;100.00
27623;BME280;15041;45.334;5.622;2023-12-20T10:55:35;99910.69;;;7.88;100.00
27623;BME280;15041;45.334;5.622;2023-12-20T10:58:07;99914.13;;;7.95;100.00
27623;BME280;15041;45.334;5.622;2023-12-20T11:00:39;99904.25;;;8.07;100.00
27623;BME280;15041;45.334;5.622;2023-12-20T11:03:09;99897.50;;;8.16;100.00
27623;BME280;15041;45.334;5.622;2023-12-20T11:05:42;99899.13;;;8.17;100.00
27623;BME280;15041;45.334;5.622;2023-12-20T11:08:19;99901.66;;;8.30;100.00
27623;BME280;15041;45.334;5.622;2023-12-20T11:10:54;99890.59;;;8.38;100.00
27623;BME280;15041;45.334;5.622;2023-12-20T11:13:28;99885.31;;;8.43;100.00
27623;BME280;15041;45.334;5.622;2023-12-20T11:15:59;99885.25;;;8.49;100.00
27623;BME280;15041;45.334;5.622;2023-12-20T11:18:29;99886.50;;;8.47;100.00
27623;BME280;15041;45.334;5.622;2023-12-20T11:21:01;99886.19;;;8.55;100.00
27623;BME280;15041;45.334;5.622;2023-12-20T11:23:29;99889.94;;;8.54;100.00
27623;BME280;15041;45.334;5.622;2023-12-20T11:25:57;99893.66;;;8.53;100.00
27623;BME280;15041;45.334;5.622;2023-12-20T11:28:26;99886.19;;;8.55;100.00
27623;BME280;15041;45.334;5.622;2023-12-20T11:30:58;99888.53;;;8.63;100.00
27623;BME280;15041;45.334;5.622;2023-12-20T11:33:27;99879.88;;;8.61;100.00
27623;BME280;15041;45.334;5.622;2023-12-20T11:35:57;99881.63;;;8.67;100.00
27623;BME280;15041;45.334;5.622;2023-12-20T11:38:25;99877.44;;;8.59;100.00
27623;BME280;15041;45.334;5.622;2023-12-20T11:40:54;99884.88;;;8.57;100.00
27623;BME280;15041;45.334;5.622;2023-12-20T11:43:31;99880.59;;;8.68;100.00
27623;BME280;15041;45.334;5.622;2023-12-20T11:46:07;99870.75;;;8.62;100.00
27623;BME280;15041;45.334;5.622;2023-12-20T11:48:36;99881.53;;;8.62;100.00
27623;BME280;15041;45.334;5.622;2023-12-20T11:51:09;99880.59;;;8.68;100.00
27623;BME280;15041;45.334;5.622;2023-12-20T11:53:37;99878.50;;;8.70;100.00
27623;BME280;15041;45.334;5.622;2023-12-20T11:56:04;99874.84;;;8.64;100.00
27623;BME280;15041;45.334;5.622;2023-12-20T11:58:33;99878.94;;;8.67;100.00
27623;BME280;15041;45.334;5.622;2023-12-20T12:01:00;99869.38;;;8.71;100.00
27623;BME280;15041;45.334;5.622;2023-12-20T12:03:29;99871.13;;;8.77;100.00
27623;BME280;15041;45.334;5.622;2023-12-20T12:05:57;99867.13;;;8.68;100.00
27623;BME280;15041;45.334;5.622;2023-12-20T12:08:26;99883.75;;;8.76;100.00
27623;BME280;15041;45.334;5.622;2023-12-20T12:10:53;99863.06;;;8.77;100.00
27623;BME280;15041;45.334;5.622;2023-12-20T12:13:21;99876.72;;;8.64;100.00
27623;BME280;15041;45.334;5.622;2023-12-20T12:15:48;99869.59;;;8.69;100.00
27623;BME280;15041;45.334;5.622;2023-12-20T12:18:16;99867.97;;;8.68;100.00
27623;BME280;15041;45.334;5.622;2023-12-20T12:20:45;99870.31;;;8.65;100.00
27623;BME280;15041;45.334;5.622;2023-12-20T12:23:12;99874.97;;;8.58;100.00
27623;BME280;15041;45.334;5.622;2023-12-20T12:25:39;99871.69;;;8.56;100.00
27623;BME280;15041;45.334;5.622;2023-12-20T12:28:07;99861.28;;;8.59;100.00
27623;BME280;15041;45.334;5.622;2023-12-20T12:30:34;99860.72;;;8.69;100.00
27623;BME280;15041;45.334;5.622;2023-12-20T12:33:02;99860.22;;;8.72;100.00
27623;BME280;15041;45.334;5.622;2023-12-20T12:35:30;99864.19;;;8.58;100.00
27623;BME280;15041;45.334;5.622;2023-12-20T12:37:59;99859.53;;;8.65;100.00
27623;BME280;15041;45.334;5.622;2023-12-20T12:40:28;99856.38;;;8.68;100.00
27623;BME280;15041;45.334;5.622;2023-12-20T12:42:55;99855.69;;;8.72;100.00
27623;BME280;15041;45.334;5.622;2023-12-20T12:45:23;99844.56;;;8.69;100.00
27623;BME280;15041;45.334;5.622;2023-12-20T12:47:50;99854.50;;;8.80;100.00
27623;BME280;15041;45.334;5.622;2023-12-20T12:50:20;99855.31;;;8.92;100.00
27623;BME280;15041;45.334;5.622;2023-12-20T12:52:48;99848.31;;;8.91;100.00
27623;BME280;15041;45.334;5.622;2023-12-20T12:55:16;99844.91;;;8.95;100.00
27623;BME280;15041;45.334;5.622;2023-12-20T12:57:43;99856.03;;;8.99;100.00
27623;BME280;15041;45.334;5.622;2023-12-20T13:00:11;99851.22;;;9.01;100.00
27623;BME280;15041;45.334;5.622;2023-12-20T13:02:39;99845.72;;;8.96;100.00
27623;BME280;15041;45.334;5.622;2023-12-20T13:05:08;99853.56;;;8.97;100.00
27623;BME280;15041;45.334;5.622;2023-12-20T13:07:35;99855.56;;;9.02;100.00
27623;BME280;15041;45.334;5.622;2023-12-20T13:10:03;99858.84;;;9.04;100.00